sensor_id;sensor_type;location;lat;lon;timestamp;P1;durP1;ratioP1;P2;durP2;ratioP2
64885;SDS011;51514;52.206;5.114;2023-07-20T00:01:14;2.28;;;1.60;;
64885;SDS011;51514;52.206;5.114;2023-07-20T00:03:40;3.05;;;1.30;;
64885;SDS011;51514;52.206;5.114;2023-07-20T00:06:05;2.33;;;1.42;;
64885;SDS011;51514;52.206;5.114;2023-07-20T00:08:31;2.40;;;1.30;;
64885;SDS011;51514;52.206;5.114;2023-07-20T00:10:57;1.77;;;1.25;;
64885;SDS011;51514;52.206;5.114;2023-07-20T00:13:22;2.13;;;1.00;;
64885;SDS011;51514;52.206;5.114;2023-07-20T00:15:48;2.15;;;1.27;;
64885;SDS011;51514;52.206;5.114;2023-07-20T00:18:13;2.15;;;1.35;;
64885;SDS011;51514;52.206;5.114;2023-07-20T00:20:39;1.98;;;1.42;;
64885;SDS011;51514;52.206;5.114;2023-07-20T00:23:05;2.40;;;1.25;;
64885;SDS011;51514;52.206;5.114;2023-07-20T00:25:30;2.70;;;1.38;;
64885;SDS011;51514;52.206;5.114;2023-07-20T00:27:56;2.15;;;1.40;;
64885;SDS011;51514;52.206;5.114;2023-07-20T00:30:21;2.65;;;1.60;;
64885;SDS011;51514;52.206;5.114;2023-07-20T00:32:46;1.10;;;1.00;;
64885;SDS011;51514;52.206;5.114;2023-07-20T00:35:13;1.50;;;1.02;;
64885;SDS011;51514;52.206;5.114;2023-07-20T00:37:39;1.50;;;1.40;;
64885;SDS011;51514;52.206;5.114;2023-07-20T00:40:05;1.52;;;1.20;;
64885;SDS011;51514;52.206;5.114;2023-07-20T00:42:32;2.33;;;1.15;;
64885;SDS011;51514;52.206;5.114;2023-07-20T00:44:58;2.50;;;1.52;;
64885;SDS011;51514;52.206;5.114;2023-07-20T00:47:23;1.75;;;0.80;;
64885;SDS011;51514;52.206;5.114;2023-07-20T00:49:49;2.50;;;1.42;;
64885;SDS011;51514;52.206;5.114;2023-07-20T00:52:16;2.03;;;1.13;;
64885;SDS011;51514;52.206;5.114;2023-07-20T00:54:43;1.67;;;1.10;;
64885;SDS011;51514;52.206;5.114;2023-07-20T00:57:09;2.55;;;1.20;;
64885;SDS011;51514;52.206;5.114;2023-07-20T00:59:34;1.75;;;1.08;;
64885;SDS011;51514;52.206;5.114;2023-07-20T01:02:01;1.73;;;1.02;;
64885;SDS011;51514;52.206;5.114;2023-07-20T01:04:26;1.20;;;1.10;;
64885;SDS011;51514;52.206;5.114;2023-07-20T01:06:58;2.38;;;0.88;;
64885;SDS011;51514;52.206;5.114;2023-07-20T01:12:08;4.45;;;0.95;;
64885;SDS011;51514;52.206;5.114;2023-07-20T01:14:55;2.28;;;1.08;;
64885;SDS011;51514;52.206;5.114;2023-07-20T01:17:21;2.25;;;1.30;;
64885;SDS011;51514;52.206;5.114;2023-07-20T01:19:46;1.88;;;1.20;;
64885;SDS011;51514;52.206;5.114;2023-07-20T01:22:25;1.33;;;1.15;;
64885;SDS011;51514;52.206;5.114;2023-07-20T01:27:26;1.38;;;1.20;;
64885;SDS011;51514;52.206;5.114;2023-07-20T01:30:11;2.47;;;1.33;;
64885;SDS011;51514;52.206;5.114;2023-07-20T01:32:44;1.35;;;1.15;;
64885;SDS011;51514;52.206;5.114;2023-07-20T01:35:12;1.20;;;1.02;;
64885;SDS011;51514;52.206;5.114;2023-07-20T01:37:44;1.38;;;1.08;;
64885;SDS011;51514;52.206;5.114;2023-07-20T01:40:11;2.97;;;1.38;;
64885;SDS011;51514;52.206;5.114;2023-07-20T01:42:42;1.38;;;1.20;;
64885;SDS011;51514;52.206;5.114;2023-07-20T01:45:09;1.73;;;1.30;;
64885;SDS011;51514;52.206;5.114;2023-07-20T01:47:34;1.02;;;0.93;;
64885;SDS011;51514;52.206;5.114;2023-07-20T01:49:59;2.58;;;1.45;;
64885;SDS011;51514;52.206;5.114;2023-07-20T01:52:25;2.75;;;1.63;;
64885;SDS011;51514;52.206;5.114;2023-07-20T01:54:50;3.25;;;1.50;;
64885;SDS011;51514;52.206;5.114;2023-07-20T01:57:16;1.50;;;1.20;;
64885;SDS011;51514;52.206;5.114;2023-07-20T01:59:41;3.88;;;1.60;;
64885;SDS011;51514;52.206;5.114;2023-07-20T02:02:06;3.45;;;1.58;;
64885;SDS011;51514;52.206;5.114;2023-07-20T02:04:32;2.50;;;1.42;;
64885;SDS011;51514;52.206;5.114;2023-07-20T02:06:57;2.13;;;1.15;;
64885;SDS011;51514;52.206;5.114;2023-07-20T02:09:22;2.88;;;1.48;;
64885;SDS011;51514;52.206;5.114;2023-07-20T02:11:48;2.38;;;1.58;;
64885;SDS011;51514;52.206;5.114;2023-07-20T02:14:13;3.28;;;1.77;;
64885;SDS011;51514;52.206;5.114;2023-07-20T02:16:39;3.05;;;1.50;;
64885;SDS011;51514;52.206;5.114;2023-07-20T02:19:04;2.10;;;1.60;;
64885;SDS011;51514;52.206;5.114;2023-07-20T02:21:31;2.88;;;1.77;;
64885;SDS011;51514;52.206;5.114;2023-07-20T02:23:57;2.63;;;1.80;;
64885;SDS011;51514;52.206;5.114;2023-07-20T02:26:23;2.40;;;1.60;;
64885;SDS011;51514;52.206;5.114;2023-07-20T02:28:48;2.38;;;1.55;;
64885;SDS011;51514;52.206;5.114;2023-07-20T02:31:13;2.28;;;1.73;;
64885;SDS011;51514;52.206;5.114;2023-07-20T02:33:39;3.55;;;2.17;;
64885;SDS011;51514;52.206;5.114;2023-07-20T02:36:04;4.03;;;2.22;;
64885;SDS011;51514;52.206;5.114;2023-07-20T02:38:29;2.08;;;1.50;;
64885;SDS011;51514;52.206;5.114;2023-07-20T02:40:55;3.22;;;1.67;;
64885;SDS011;51514;52.206;5.114;2023-07-20T02:43:20;2.88;;;1.85;;
64885;SDS011;51514;52.206;5.114;2023-07-20T02:45:45;2.42;;;1.70;;
64885;SDS011;51514;52.206;5.114;2023-07-20T02:48:11;3.50;;;1.90;;
64885;SDS011;51514;52.206;5.114;2023-07-20T02:50:36;2.90;;;1.80;;
64885;SDS011;51514;52.206;5.114;2023-07-20T02:53:02;3.03;;;1.80;;
64885;SDS011;51514;52.206;5.114;2023-07-20T02:55:27;2.90;;;2.00;;
64885;SDS011;51514;52.206;5.114;2023-07-20T02:57:53;3.38;;;2.00;;
64885;SDS011;51514;52.206;5.114;2023-07-20T03:00:18;2.67;;;1.90;;
64885;SDS011;51514;52.206;5.114;2023-07-20T03:02:44;3.28;;;2.15;;
64885;SDS011;51514;52.206;5.114;2023-07-20T03:05:15;1.73;;;1.50;;
64885;SDS011;51514;52.206;5.114;2023-07-20T03:07:41;2.83;;;2.03;;
64885;SDS011;51514;52.206;5.114;2023-07-20T03:10:08;4.15;;;2.05;;
64885;SDS011;51514;52.206;5.114;2023-07-20T03:12:34;4.53;;;2.00;;
64885;SDS011;51514;52.206;5.114;2023-07-20T03:15:00;3.50;;;2.00;;
64885;SDS011;51514;52.206;5.114;2023-07-20T03:17:26;4.40;;;2.00;;
64885;SDS011;51514;52.206;5.114;2023-07-20T03:19:51;3.50;;;1.95;;
64885;SDS011;51514;52.206;5.114;2023-07-20T03:22:17;3.13;;;2.35;;
64885;SDS011;51514;52.206;5.114;2023-07-20T03:24:42;2.50;;;1.75;;
64885;SDS011;51514;52.206;5.114;2023-07-20T03:27:08;3.13;;;1.98;;
64885;SDS011;51514;52.206;5.114;2023-07-20T03:29:33;2.70;;;1.90;;
64885;SDS011;51514;52.206;5.114;2023-07-20T03:31:58;4.35;;;2.00;;
64885;SDS011;51514;52.206;5.114;2023-07-20T03:34:24;2.67;;;1.83;;
64885;SDS011;51514;52.206;5.114;2023-07-20T03:36:50;2.35;;;1.75;;
64885;SDS011;51514;52.206;5.114;2023-07-20T03:39:15;3.13;;;1.48;;
64885;SDS011;51514;52.206;5.114;2023-07-20T03:41:40;3.03;;;2.05;;
64885;SDS011;51514;52.206;5.114;2023-07-20T03:44:06;3.70;;;2.00;;
64885;SDS011;51514;52.206;5.114;2023-07-20T03:46:31;3.58;;;1.75;;
64885;SDS011;51514;52.206;5.114;2023-07-20T03:48:59;2.92;;;2.08;;
64885;SDS011;51514;52.206;5.114;2023-07-20T03:51:24;3.00;;;1.92;;
64885;SDS011;51514;52.206;5.114;2023-07-20T03:53:49;2.88;;;2.00;;
64885;SDS011;51514;52.206;5.114;2023-07-20T03:56:15;3.92;;;1.80;;
64885;SDS011;51514;52.206;5.114;2023-07-20T03:58:40;4.30;;;1.70;;
64885;SDS011;51514;52.206;5.114;2023-07-20T04:01:06;4.72;;;1.73;;
64885;SDS011;51514;52.206;5.114;2023-07-20T04:03:32;3.28;;;1.70;;
64885;SDS011;51514;52.206;5.114;2023-07-20T04:05:57;4.45;;;2.50;;
64885;SDS011;51514;52.206;5.114;2023-07-20T04:08:23;2.50;;;1.90;;
64885;SDS011;51514;52.206;5.114;2023-07-20T04:10:49;3.25;;;1.90;;
64885;SDS011;51514;52.206;5.114;2023-07-20T04:13:15;4.18;;;2.25;;
64885;SDS011;51514;52.206;5.114;2023-07-20T04:15:41;5.43;;;2.08;;
64885;SDS011;51514;52.206;5.114;2023-07-20T04:18:07;5.63;;;2.67;;
64885;SDS011;51514;52.206;5.114;2023-07-20T04:20:33;3.42;;;1.80;;
64885;SDS011;51514;52.206;5.114;2023-07-20T04:22:58;2.45;;;1.85;;
64885;SDS011;51514;52.206;5.114;2023-07-20T04:25:23;4.78;;;2.22;;
64885;SDS011;51514;52.206;5.114;2023-07-20T04:27:49;2.67;;;1.90;;
64885;SDS011;51514;52.206;5.114;2023-07-20T04:30:16;2.97;;;2.25;;
64885;SDS011;51514;52.206;5.114;2023-07-20T04:32:45;3.35;;;2.30;;
64885;SDS011;51514;52.206;5.114;2023-07-20T04:35:16;2.05;;;1.77;;
64885;SDS011;51514;52.206;5.114;2023-07-20T04:37:43;3.90;;;2.00;;
64885;SDS011;51514;52.206;5.114;2023-07-20T04:40:12;1.80;;;1.58;;
64885;SDS011;51514;52.206;5.114;2023-07-20T04:45:05;3.67;;;1.48;;
64885;SDS011;51514;52.206;5.114;2023-07-20T04:47:31;3.15;;;1.98;;
64885;SDS011;51514;52.206;5.114;2023-07-20T04:49:57;2.13;;;1.67;;
64885;SDS011;51514;52.206;5.114;2023-07-20T04:52:22;3.38;;;1.67;;
64885;SDS011;51514;52.206;5.114;2023-07-20T04:54:48;2.17;;;1.63;;
64885;SDS011;51514;52.206;5.114;2023-07-20T04:57:13;2.25;;;1.70;;
64885;SDS011;51514;52.206;5.114;2023-07-20T04:59:38;3.83;;;1.92;;
64885;SDS011;51514;52.206;5.114;2023-07-20T05:02:04;3.05;;;2.08;;
64885;SDS011;51514;52.206;5.114;2023-07-20T05:04:29;2.95;;;1.60;;
64885;SDS011;51514;52.206;5.114;2023-07-20T05:06:55;2.10;;;1.52;;
64885;SDS011;51514;52.206;5.114;2023-07-20T05:09:20;2.65;;;1.38;;
64885;SDS011;51514;52.206;5.114;2023-07-20T05:11:46;3.10;;;1.60;;
64885;SDS011;51514;52.206;5.114;2023-07-20T05:14:13;2.25;;;1.70;;
64885;SDS011;51514;52.206;5.114;2023-07-20T05:16:38;3.22;;;1.63;;
64885;SDS011;51514;52.206;5.114;2023-07-20T05:19:04;2.85;;;1.17;;
64885;SDS011;51514;52.206;5.114;2023-07-20T05:21:29;1.63;;;1.17;;
64885;SDS011;51514;52.206;5.114;2023-07-20T05:23:55;1.95;;;1.20;;
64885;SDS011;51514;52.206;5.114;2023-07-20T05:26:20;1.60;;;1.20;;
64885;SDS011;51514;52.206;5.114;2023-07-20T05:28:45;2.33;;;1.27;;
64885;SDS011;51514;52.206;5.114;2023-07-20T05:31:11;2.13;;;1.25;;
64885;SDS011;51514;52.206;5.114;2023-07-20T05:33:36;2.42;;;1.45;;
64885;SDS011;51514;52.206;5.114;2023-07-20T05:36:01;2.22;;;1.15;;
64885;SDS011;51514;52.206;5.114;2023-07-20T05:38:27;2.03;;;1.48;;
64885;SDS011;51514;52.206;5.114;2023-07-20T05:40:52;1.88;;;1.02;;
64885;SDS011;51514;52.206;5.114;2023-07-20T05:43:18;2.28;;;1.17;;
64885;SDS011;51514;52.206;5.114;2023-07-20T05:45:43;1.63;;;1.17;;
64885;SDS011;51514;52.206;5.114;2023-07-20T05:48:10;2.58;;;1.30;;
64885;SDS011;51514;52.206;5.114;2023-07-20T05:50:36;3.08;;;1.45;;
64885;SDS011;51514;52.206;5.114;2023-07-20T05:53:03;1.88;;;1.30;;
64885;SDS011;51514;52.206;5.114;2023-07-20T05:55:28;2.20;;;1.27;;
64885;SDS011;51514;52.206;5.114;2023-07-20T05:57:54;2.63;;;1.60;;
64885;SDS011;51514;52.206;5.114;2023-07-20T06:00:20;2.45;;;1.40;;
64885;SDS011;51514;52.206;5.114;2023-07-20T06:02:51;1.95;;;1.00;;
64885;SDS011;51514;52.206;5.114;2023-07-20T06:05:20;2.00;;;1.20;;
64885;SDS011;51514;52.206;5.114;2023-07-20T06:07:46;1.30;;;1.10;;
64885;SDS011;51514;52.206;5.114;2023-07-20T06:10:11;1.98;;;1.17;;
64885;SDS011;51514;52.206;5.114;2023-07-20T06:12:37;1.75;;;1.08;;
64885;SDS011;51514;52.206;5.114;2023-07-20T06:15:03;2.05;;;1.13;;
64885;SDS011;51514;52.206;5.114;2023-07-20T06:17:30;1.58;;;1.25;;
64885;SDS011;51514;52.206;5.114;2023-07-20T06:19:55;1.45;;;1.25;;
64885;SDS011;51514;52.206;5.114;2023-07-20T06:22:20;3.03;;;1.70;;
64885;SDS011;51514;52.206;5.114;2023-07-20T06:24:46;1.40;;;1.00;;
64885;SDS011;51514;52.206;5.114;2023-07-20T06:27:11;2.30;;;1.35;;
64885;SDS011;51514;52.206;5.114;2023-07-20T06:29:37;2.60;;;1.13;;
64885;SDS011;51514;52.206;5.114;2023-07-20T06:32:03;1.23;;;0.93;;
64885;SDS011;51514;52.206;5.114;2023-07-20T06:34:28;2.08;;;1.02;;
64885;SDS011;51514;52.206;5.114;2023-07-20T06:36:54;1.40;;;1.08;;
64885;SDS011;51514;52.206;5.114;2023-07-20T06:39:20;3.50;;;1.45;;
64885;SDS011;51514;52.206;5.114;2023-07-20T06:41:47;4.55;;;1.30;;
64885;SDS011;51514;52.206;5.114;2023-07-20T06:44:12;1.67;;;1.23;;
64885;SDS011;51514;52.206;5.114;2023-07-20T06:46:38;3.95;;;1.38;;
64885;SDS011;51514;52.206;5.114;2023-07-20T06:49:05;2.00;;;1.20;;
64885;SDS011;51514;52.206;5.114;2023-07-20T06:51:32;2.88;;;1.40;;
64885;SDS011;51514;52.206;5.114;2023-07-20T06:53:58;3.38;;;1.00;;
64885;SDS011;51514;52.206;5.114;2023-07-20T06:56:23;1.58;;;1.00;;
64885;SDS011;51514;52.206;5.114;2023-07-20T06:58:49;1.40;;;1.10;;
64885;SDS011;51514;52.206;5.114;2023-07-20T07:01:14;2.20;;;1.00;;
64885;SDS011;51514;52.206;5.114;2023-07-20T07:03:40;4.22;;;1.23;;
64885;SDS011;51514;52.206;5.114;2023-07-20T07:06:05;3.30;;;1.20;;
64885;SDS011;51514;52.206;5.114;2023-07-20T07:08:30;2.85;;;1.10;;
64885;SDS011;51514;52.206;5.114;2023-07-20T07:10:56;3.45;;;0.90;;
64885;SDS011;51514;52.206;5.114;2023-07-20T07:13:21;1.63;;;1.20;;
64885;SDS011;51514;52.206;5.114;2023-07-20T07:15:47;2.13;;;1.00;;
64885;SDS011;51514;52.206;5.114;2023-07-20T07:18:12;2.03;;;1.10;;
64885;SDS011;51514;52.206;5.114;2023-07-20T07:20:37;1.35;;;1.10;;
64885;SDS011;51514;52.206;5.114;2023-07-20T07:23:03;3.47;;;1.00;;
64885;SDS011;51514;52.206;5.114;2023-07-20T07:25:28;1.70;;;0.98;;
64885;SDS011;51514;52.206;5.114;2023-07-20T07:27:54;1.63;;;1.10;;
64885;SDS011;51514;52.206;5.114;2023-07-20T07:30:21;2.17;;;1.10;;
64885;SDS011;51514;52.206;5.114;2023-07-20T07:32:46;1.50;;;1.00;;
64885;SDS011;51514;52.206;5.114;2023-07-20T07:35:12;1.67;;;1.15;;
64885;SDS011;51514;52.206;5.114;2023-07-20T07:37:37;1.83;;;1.00;;
64885;SDS011;51514;52.206;5.114;2023-07-20T07:40:03;2.55;;;1.10;;
64885;SDS011;51514;52.206;5.114;2023-07-20T07:42:30;1.67;;;1.35;;
64885;SDS011;51514;52.206;5.114;2023-07-20T07:44:56;3.25;;;1.10;;
64885;SDS011;51514;52.206;5.114;2023-07-20T07:47:21;1.15;;;0.70;;
64885;SDS011;51514;52.206;5.114;2023-07-20T07:49:47;1.10;;;0.90;;
64885;SDS011;51514;52.206;5.114;2023-07-20T07:52:12;2.97;;;1.58;;
64885;SDS011;51514;52.206;5.114;2023-07-20T07:54:39;1.75;;;0.88;;
64885;SDS011;51514;52.206;5.114;2023-07-20T07:57:04;3.75;;;1.20;;
64885;SDS011;51514;52.206;5.114;2023-07-20T07:59:30;0.90;;;0.80;;
64885;SDS011;51514;52.206;5.114;2023-07-20T08:02:01;2.05;;;0.95;;
64885;SDS011;51514;52.206;5.114;2023-07-20T08:04:27;2.30;;;1.00;;
64885;SDS011;51514;52.206;5.114;2023-07-20T08:06:52;2.28;;;1.27;;
64885;SDS011;51514;52.206;5.114;2023-07-20T08:09:18;3.75;;;1.20;;
64885;SDS011;51514;52.206;5.114;2023-07-20T08:11:43;1.77;;;1.40;;
64885;SDS011;51514;52.206;5.114;2023-07-20T08:14:08;1.27;;;0.70;;
64885;SDS011;51514;52.206;5.114;2023-07-20T08:16:33;1.38;;;0.93;;
64885;SDS011;51514;52.206;5.114;2023-07-20T08:18:59;2.25;;;0.93;;
64885;SDS011;51514;52.206;5.114;2023-07-20T08:21:24;0.98;;;0.80;;
64885;SDS011;51514;52.206;5.114;2023-07-20T08:23:50;2.15;;;1.15;;
64885;SDS011;51514;52.206;5.114;2023-07-20T08:26:15;1.30;;;0.98;;
64885;SDS011;51514;52.206;5.114;2023-07-20T08:28:42;1.77;;;0.80;;
64885;SDS011;51514;52.206;5.114;2023-07-20T08:31:09;1.27;;;1.00;;
64885;SDS011;51514;52.206;5.114;2023-07-20T08:33:34;0.90;;;0.75;;
64885;SDS011;51514;52.206;5.114;2023-07-20T08:36:00;1.45;;;0.90;;
64885;SDS011;51514;52.206;5.114;2023-07-20T08:38:26;0.70;;;0.70;;
64885;SDS011;51514;52.206;5.114;2023-07-20T08:40:53;1.90;;;0.98;;
64885;SDS011;51514;52.206;5.114;2023-07-20T08:43:20;0.85;;;0.70;;
64885;SDS011;51514;52.206;5.114;2023-07-20T08:45:49;1.67;;;1.13;;
64885;SDS011;51514;52.206;5.114;2023-07-20T08:48:16;1.08;;;0.65;;
64885;SDS011;51514;52.206;5.114;2023-07-20T08:50:43;2.15;;;1.08;;
64885;SDS011;51514;52.206;5.114;2023-07-20T08:53:10;1.75;;;0.93;;
64885;SDS011;51514;52.206;5.114;2023-07-20T08:55:38;1.52;;;0.73;;
64885;SDS011;51514;52.206;5.114;2023-07-20T08:58:05;0.75;;;0.75;;
64885;SDS011;51514;52.206;5.114;2023-07-20T09:00:36;1.80;;;1.08;;
64885;SDS011;51514;52.206;5.114;2023-07-20T09:03:02;2.92;;;1.10;;
64885;SDS011;51514;52.206;5.114;2023-07-20T09:05:28;2.58;;;1.10;;
64885;SDS011;51514;52.206;5.114;2023-07-20T09:07:55;0.98;;;0.75;;
64885;SDS011;51514;52.206;5.114;2023-07-20T09:10:21;0.75;;;0.70;;
64885;SDS011;51514;52.206;5.114;2023-07-20T09:12:47;1.20;;;1.10;;
64885;SDS011;51514;52.206;5.114;2023-07-20T09:15:12;1.60;;;0.90;;
64885;SDS011;51514;52.206;5.114;2023-07-20T09:17:38;0.77;;;0.70;;
64885;SDS011;51514;52.206;5.114;2023-07-20T09:20:04;0.85;;;0.68;;
64885;SDS011;51514;52.206;5.114;2023-07-20T09:22:33;2.55;;;0.93;;
64885;SDS011;51514;52.206;5.114;2023-07-20T09:24:59;1.17;;;0.90;;
64885;SDS011;51514;52.206;5.114;2023-07-20T09:27:40;1.17;;;0.75;;
64885;SDS011;51514;52.206;5.114;2023-07-20T09:30:08;1.05;;;0.63;;
64885;SDS011;51514;52.206;5.114;2023-07-20T09:32:39;1.13;;;0.60;;
64885;SDS011;51514;52.206;5.114;2023-07-20T09:35:13;0.98;;;0.63;;
64885;SDS011;51514;52.206;5.114;2023-07-20T09:37:49;0.70;;;0.70;;
64885;SDS011;51514;52.206;5.114;2023-07-20T09:40:37;1.42;;;0.90;;
64885;SDS011;51514;52.206;5.114;2023-07-20T09:43:04;2.08;;;1.10;;
64885;SDS011;51514;52.206;5.114;2023-07-20T09:45:33;1.83;;;0.90;;
64885;SDS011;51514;52.206;5.114;2023-07-20T09:48:02;1.60;;;0.90;;
64885;SDS011;51514;52.206;5.114;2023-07-20T09:50:28;1.42;;;0.80;;
64885;SDS011;51514;52.206;5.114;2023-07-20T09:52:54;1.20;;;0.77;;
64885;SDS011;51514;52.206;5.114;2023-07-20T09:55:21;0.93;;;0.88;;
64885;SDS011;51514;52.206;5.114;2023-07-20T09:57:49;3.70;;;1.17;;
64885;SDS011;51514;52.206;5.114;2023-07-20T10:00:14;0.60;;;0.60;;
64885;SDS011;51514;52.206;5.114;2023-07-20T10:02:42;2.03;;;1.02;;
64885;SDS011;51514;52.206;5.114;2023-07-20T10:05:08;1.27;;;1.08;;
64885;SDS011;51514;52.206;5.114;2023-07-20T10:07:39;1.40;;;0.60;;
64885;SDS011;51514;52.206;5.114;2023-07-20T10:10:10;1.70;;;0.95;;
64885;SDS011;51514;52.206;5.114;2023-07-20T10:12:36;1.95;;;1.00;;
64885;SDS011;51514;52.206;5.114;2023-07-20T10:15:15;1.60;;;0.97;;
64885;SDS011;51514;52.206;5.114;2023-07-20T10:20:42;1.23;;;0.73;;
64885;SDS011;51514;52.206;5.114;2023-07-20T10:23:09;1.05;;;0.85;;
64885;SDS011;51514;52.206;5.114;2023-07-20T10:25:37;1.05;;;0.98;;
64885;SDS011;51514;52.206;5.114;2023-07-20T10:28:06;1.13;;;0.63;;
64885;SDS011;51514;52.206;5.114;2023-07-20T10:30:35;2.70;;;1.10;;
64885;SDS011;51514;52.206;5.114;2023-07-20T10:33:02;2.03;;;0.90;;
64885;SDS011;51514;52.206;5.114;2023-07-20T10:35:28;0.95;;;0.68;;
64885;SDS011;51514;52.206;5.114;2023-07-20T10:37:54;1.38;;;0.70;;
64885;SDS011;51514;52.206;5.114;2023-07-20T10:40:31;1.45;;;0.90;;
64885;SDS011;51514;52.206;5.114;2023-07-20T10:45:33;1.73;;;1.00;;
64885;SDS011;51514;52.206;5.114;2023-07-20T10:48:14;1.02;;;0.85;;
64885;SDS011;51514;52.206;5.114;2023-07-20T10:50:44;1.52;;;0.90;;
64885;SDS011;51514;52.206;5.114;2023-07-20T10:55:37;1.42;;;1.00;;
64885;SDS011;51514;52.206;5.114;2023-07-20T10:58:11;1.02;;;0.82;;
64885;SDS011;51514;52.206;5.114;2023-07-20T11:01:00;1.65;;;1.10;;
64885;SDS011;51514;52.206;5.114;2023-07-20T11:03:29;1.20;;;1.00;;
64885;SDS011;51514;52.206;5.114;2023-07-20T11:05:56;1.95;;;0.90;;
64885;SDS011;51514;52.206;5.114;2023-07-20T11:08:41;1.40;;;0.73;;
64885;SDS011;51514;52.206;5.114;2023-07-20T11:13:53;2.78;;;1.48;;
64885;SDS011;51514;52.206;5.114;2023-07-20T11:16:31;2.22;;;0.75;;
64885;SDS011;51514;52.206;5.114;2023-07-20T11:18:57;2.60;;;1.05;;
64885;SDS011;51514;52.206;5.114;2023-07-20T11:21:24;2.53;;;1.10;;
64885;SDS011;51514;52.206;5.114;2023-07-20T11:23:50;2.15;;;1.08;;
64885;SDS011;51514;52.206;5.114;2023-07-20T11:26:17;2.35;;;1.00;;
64885;SDS011;51514;52.206;5.114;2023-07-20T11:28:43;2.00;;;0.95;;
64885;SDS011;51514;52.206;5.114;2023-07-20T11:31:08;1.38;;;0.95;;
64885;SDS011;51514;52.206;5.114;2023-07-20T11:33:33;2.40;;;1.00;;
64885;SDS011;51514;52.206;5.114;2023-07-20T11:35:59;1.30;;;1.00;;
64885;SDS011;51514;52.206;5.114;2023-07-20T11:38:24;1.77;;;0.98;;
64885;SDS011;51514;52.206;5.114;2023-07-20T11:40:50;2.13;;;1.13;;
64885;SDS011;51514;52.206;5.114;2023-07-20T11:43:16;1.20;;;0.93;;
64885;SDS011;51514;52.206;5.114;2023-07-20T11:45:41;2.67;;;1.00;;
64885;SDS011;51514;52.206;5.114;2023-07-20T11:48:07;1.50;;;0.93;;
64885;SDS011;51514;52.206;5.114;2023-07-20T11:50:39;1.30;;;0.85;;
64885;SDS011;51514;52.206;5.114;2023-07-20T11:53:05;1.63;;;0.95;;
64885;SDS011;51514;52.206;5.114;2023-07-20T11:55:31;1.67;;;1.10;;
64885;SDS011;51514;52.206;5.114;2023-07-20T11:58:04;2.03;;;0.95;;
64885;SDS011;51514;52.206;5.114;2023-07-20T12:00:30;3.42;;;1.10;;
64885;SDS011;51514;52.206;5.114;2023-07-20T12:02:56;1.67;;;1.02;;
64885;SDS011;51514;52.206;5.114;2023-07-20T12:05:22;1.45;;;0.80;;
64885;SDS011;51514;52.206;5.114;2023-07-20T12:07:47;3.00;;;1.00;;
64885;SDS011;51514;52.206;5.114;2023-07-20T12:10:17;2.33;;;1.17;;
64885;SDS011;51514;52.206;5.114;2023-07-20T12:12:52;1.70;;;1.20;;
64885;SDS011;51514;52.206;5.114;2023-07-20T12:15:21;2.53;;;1.10;;
64885;SDS011;51514;52.206;5.114;2023-07-20T12:17:58;3.00;;;1.00;;
64885;SDS011;51514;52.206;5.114;2023-07-20T12:23:06;1.40;;;1.05;;
64885;SDS011;51514;52.206;5.114;2023-07-20T12:28:10;1.80;;;1.08;;
64885;SDS011;51514;52.206;5.114;2023-07-20T12:30:40;1.73;;;1.00;;
64885;SDS011;51514;52.206;5.114;2023-07-20T12:33:07;2.63;;;0.95;;
64885;SDS011;51514;52.206;5.114;2023-07-20T12:35:33;1.50;;;1.10;;
64885;SDS011;51514;52.206;5.114;2023-07-20T12:37:59;2.45;;;1.50;;
64885;SDS011;51514;52.206;5.114;2023-07-20T12:40:25;2.88;;;0.90;;
64885;SDS011;51514;52.206;5.114;2023-07-20T12:42:51;1.70;;;0.88;;
64885;SDS011;51514;52.206;5.114;2023-07-20T12:45:16;2.25;;;1.25;;
64885;SDS011;51514;52.206;5.114;2023-07-20T12:47:42;1.15;;;1.08;;
64885;SDS011;51514;52.206;5.114;2023-07-20T12:50:09;2.53;;;0.90;;
64885;SDS011;51514;52.206;5.114;2023-07-20T12:55:04;1.67;;;0.70;;
64885;SDS011;51514;52.206;5.114;2023-07-20T12:57:31;1.13;;;0.90;;
64885;SDS011;51514;52.206;5.114;2023-07-20T12:59:56;0.98;;;0.85;;
64885;SDS011;51514;52.206;5.114;2023-07-20T13:02:21;1.40;;;1.00;;
64885;SDS011;51514;52.206;5.114;2023-07-20T13:04:47;1.90;;;0.70;;
64885;SDS011;51514;52.206;5.114;2023-07-20T13:07:12;1.08;;;0.75;;
64885;SDS011;51514;52.206;5.114;2023-07-20T13:09:37;1.25;;;1.13;;
64885;SDS011;51514;52.206;5.114;2023-07-20T13:12:03;1.63;;;0.85;;
64885;SDS011;51514;52.206;5.114;2023-07-20T13:14:28;2.40;;;1.02;;
64885;SDS011;51514;52.206;5.114;2023-07-20T13:16:55;1.27;;;0.80;;
64885;SDS011;51514;52.206;5.114;2023-07-20T13:19:20;2.25;;;1.00;;
64885;SDS011;51514;52.206;5.114;2023-07-20T13:21:46;0.70;;;0.70;;
64885;SDS011;51514;52.206;5.114;2023-07-20T13:24:11;2.03;;;1.00;;
64885;SDS011;51514;52.206;5.114;2023-07-20T13:26:37;4.03;;;1.27;;
64885;SDS011;51514;52.206;5.114;2023-07-20T13:29:03;1.58;;;1.02;;
64885;SDS011;51514;52.206;5.114;2023-07-20T13:31:28;1.17;;;0.63;;
64885;SDS011;51514;52.206;5.114;2023-07-20T13:33:53;2.63;;;1.15;;
64885;SDS011;51514;52.206;5.114;2023-07-20T13:36:19;1.92;;;1.02;;
64885;SDS011;51514;52.206;5.114;2023-07-20T13:38:47;1.67;;;1.02;;
64885;SDS011;51514;52.206;5.114;2023-07-20T13:41:13;1.92;;;0.75;;
64885;SDS011;51514;52.206;5.114;2023-07-20T13:43:39;1.33;;;0.88;;
64885;SDS011;51514;52.206;5.114;2023-07-20T13:46:05;1.02;;;0.90;;
64885;SDS011;51514;52.206;5.114;2023-07-20T13:48:30;5.03;;;1.00;;
64885;SDS011;51514;52.206;5.114;2023-07-20T13:50:56;2.55;;;1.08;;
64885;SDS011;51514;52.206;5.114;2023-07-20T13:53:21;2.22;;;1.23;;
64885;SDS011;51514;52.206;5.114;2023-07-20T13:55:47;2.45;;;0.88;;
64885;SDS011;51514;52.206;5.114;2023-07-20T13:58:12;3.70;;;1.02;;
64885;SDS011;51514;52.206;5.114;2023-07-20T14:00:38;3.72;;;0.98;;
64885;SDS011;51514;52.206;5.114;2023-07-20T14:03:03;2.95;;;1.20;;
64885;SDS011;51514;52.206;5.114;2023-07-20T14:05:29;3.58;;;1.33;;
64885;SDS011;51514;52.206;5.114;2023-07-20T14:07:54;2.30;;;0.90;;
64885;SDS011;51514;52.206;5.114;2023-07-20T14:10:19;2.47;;;1.35;;
64885;SDS011;51514;52.206;5.114;2023-07-20T14:12:45;2.65;;;1.13;;
64885;SDS011;51514;52.206;5.114;2023-07-20T14:15:11;2.60;;;1.13;;
64885;SDS011;51514;52.206;5.114;2023-07-20T14:17:36;2.35;;;1.10;;
64885;SDS011;51514;52.206;5.114;2023-07-20T14:20:02;2.13;;;1.13;;
64885;SDS011;51514;52.206;5.114;2023-07-20T14:22:30;1.77;;;1.13;;
64885;SDS011;51514;52.206;5.114;2023-07-20T14:24:56;1.75;;;0.82;;
64885;SDS011;51514;52.206;5.114;2023-07-20T14:27:21;1.08;;;0.77;;
64885;SDS011;51514;52.206;5.114;2023-07-20T14:29:47;2.13;;;1.10;;
64885;SDS011;51514;52.206;5.114;2023-07-20T14:32:12;2.72;;;1.00;;
64885;SDS011;51514;52.206;5.114;2023-07-20T14:34:38;1.77;;;0.85;;
64885;SDS011;51514;52.206;5.114;2023-07-20T14:37:04;1.80;;;0.95;;
64885;SDS011;51514;52.206;5.114;2023-07-20T14:39:29;2.90;;;1.63;;
64885;SDS011;51514;52.206;5.114;2023-07-20T14:41:55;1.35;;;0.77;;
64885;SDS011;51514;52.206;5.114;2023-07-20T14:44:20;1.88;;;0.80;;
64885;SDS011;51514;52.206;5.114;2023-07-20T14:46:46;0.93;;;0.60;;
64885;SDS011;51514;52.206;5.114;2023-07-20T14:49:11;3.17;;;0.90;;
64885;SDS011;51514;52.206;5.114;2023-07-20T14:51:36;2.60;;;1.00;;
64885;SDS011;51514;52.206;5.114;2023-07-20T14:54:08;1.52;;;1.05;;
64885;SDS011;51514;52.206;5.114;2023-07-20T14:56:34;1.48;;;1.00;;
64885;SDS011;51514;52.206;5.114;2023-07-20T14:58:59;0.70;;;0.63;;
64885;SDS011;51514;52.206;5.114;2023-07-20T15:01:25;1.23;;;0.63;;
64885;SDS011;51514;52.206;5.114;2023-07-20T15:03:51;2.33;;;1.15;;
64885;SDS011;51514;52.206;5.114;2023-07-20T15:06:18;3.25;;;0.77;;
64885;SDS011;51514;52.206;5.114;2023-07-20T15:08:44;1.15;;;0.70;;
64885;SDS011;51514;52.206;5.114;2023-07-20T15:11:09;1.33;;;0.77;;